Terminal Aerodrome Forecast
Issued by NWS

Home | Current Version | Previous Version | Text Only | Print | Product List | Glossary On
Versions: 1 2 3 4 5 6 7 8 9 10 11 12 13 14 15 16 17 18 19 20 21 22 23 24 25 26 27 28
000
FTUS41 KRLX 240157 AAA
TAFCKB
TAF AMD
KCKB 240157Z 2402/2424 04009KT 6SM -RA BKN012 OVC020
     FM240500 33009KT 5SM -RA OVC008
     FM241400 29008KT P6SM -SHRA OVC012=

USA.gov is the U.S. government's official web portal to all federal, state and local government web resources and services.